Time;durP1;ratioP1;P1;durP2;ratioP2;P2;SDS_P1;SDS_P2;PMS_P1;PMS_P2;Temp;Humidity;BMP_temperature;BMP_pressure;BME280_temperature;BME280_humidity;BME280_pressure;Samples;Min_cycle;Max_cycle;Signal;HPM_P1;HPM_P2
2023/03/17 00:01:36;;;;;;;7.03;6.43;;;;;;;5.08;100.00;98171.41;4125193;28;20753;-49
2023/03/17 00:03:40;;;;;;;10.63;6.03;;;;;;;5.03;100.00;98182.09;4124706;28;20315;-49
2023/03/17 00:05:43;;;;;;;7.30;6.60;;;;;;;5.04;100.00;98188.34;4102646;28;20242;-50
2023/03/17 00:07:45;;;;;;;6.18;5.70;;;;;;;5.06;100.00;98178.09;4122673;28;20316;-49
2023/03/17 00:09:47;;;;;;;6.43;5.85;;;;;;;5.05;100.00;98173.75;4120757;28;20778;-49
2023/03/17 00:11:49;;;;;;;7.85;7.13;;;;;;;5.04;100.00;98178.31;4121356;28;20229;-50
2023/03/17 00:13:51;;;;;;;6.63;6.00;;;;;;;5.01;100.00;98179.84;4135465;28;20276;-48
2023/03/17 00:15:57;;;;;;;8.88;5.88;;;;;;;5.01;100.00;98167.09;4119937;28;20222;-49
2023/03/17 00:17:58;;;;;;;5.88;5.38;;;;;;;5.04;100.00;98169.38;4104679;28;20211;-49
2023/03/17 00:20:00;;;;;;;6.22;5.18;;;;;;;5.06;100.00;98171.88;4126782;28;20237;-49
2023/03/17 00:22:04;;;;;;;6.72;5.68;;;;;;;5.02;100.00;98168.78;4122841;28;20206;-49
2023/03/17 00:24:10;;;;;;;6.50;5.40;;;;;;;5.01;100.00;98171.72;4118603;28;20210;-49
2023/03/17 00:26:15;;;;;;;6.15;5.55;;;;;;;4.97;100.00;98174.03;4119736;28;20590;-48
2023/03/17 00:28:22;;;;;;;6.78;5.90;;;;;;;4.96;100.00;98171.53;4119844;28;20289;-49
2023/03/17 00:30:24;;;;;;;12.00;5.95;;;;;;;4.90;100.00;98169.72;4118177;28;20238;-49
2023/03/17 00:32:26;;;;;;;6.35;5.55;;;;;;;4.90;100.00;98178.69;4118645;28;20325;-49
2023/03/17 00:34:28;;;;;;;6.40;5.15;;;;;;;4.95;100.00;98173.44;4135893;28;20307;-49
2023/03/17 00:36:31;;;;;;;6.53;5.82;;;;;;;4.98;100.00;98172.97;4120281;28;20207;-49
2023/03/17 00:38:33;;;;;;;6.53;5.95;;;;;;;4.93;100.00;98170.09;4134936;28;20300;-49
2023/03/17 00:40:35;;;;;;;5.47;4.97;;;;;;;5.01;100.00;98167.09;4105565;28;20254;-49
2023/03/17 00:42:38;;;;;;;5.57;5.07;;;;;;;4.89;100.00;98168.06;4114941;28;20313;-49
2023/03/17 00:44:40;;;;;;;10.40;5.00;;;;;;;4.90;100.00;98170.56;4127968;28;20340;-49
2023/03/17 00:46:42;;;;;;;5.53;5.00;;;;;;;4.85;100.00;98173.09;4095257;28;20306;-50
2023/03/17 00:48:44;;;;;;;6.75;5.18;;;;;;;4.83;100.00;98169.78;4124032;28;20245;-49
2023/03/17 00:50:47;;;;;;;4.63;4.28;;;;;;;4.90;100.00;98165.13;4105568;28;20293;-49
2023/03/17 00:52:51;;;;;;;4.70;4.30;;;;;;;5.00;100.00;98149.19;4119055;28;20264;-49
2023/03/17 00:54:53;;;;;;;5.22;4.82;;;;;;;4.90;100.00;98143.44;4135204;28;20373;-49
2023/03/17 00:56:55;;;;;;;5.57;5.10;;;;;;;4.86;100.00;98141.41;4124210;28;20233;-49
2023/03/17 00:58:56;;;;;;;6.22;5.70;;;;;;;4.94;100.00;98139.22;4126207;28;20601;-50
2023/03/17 01:00:59;;;;;;;9.93;5.05;;;;;;;4.86;100.00;98153.06;4118631;28;20288;-50
2023/03/17 01:03:01;;;;;;;6.07;5.03;;;;;;;4.82;100.00;98149.16;4124235;28;20237;-49
2023/03/17 01:05:03;;;;;;;6.80;4.95;;;;;;;4.81;100.00;98143.97;4137229;28;20301;-48
2023/03/17 01:07:10;;;;;;;6.07;4.82;;;;;;;4.89;100.00;98130.97;4124640;28;20206;-49
2023/03/17 01:09:13;;;;;;;6.25;5.68;;;;;;;4.87;100.00;98133.03;4118918;28;20312;-49
2023/03/17 01:11:19;;;;;;;5.63;5.13;;;;;;;4.80;100.00;98126.03;4122466;28;20657;-49
2023/03/17 01:13:21;;;;;;;10.55;5.32;;;;;;;4.79;100.00;98124.41;4135689;28;20316;-49
2023/03/17 01:15:25;;;;;;;6.45;5.85;;;;;;;4.74;100.00;98127.75;4119130;28;20226;-49
2023/03/17 01:17:27;;;;;;;7.65;5.53;;;;;;;4.71;100.00;98127.34;4108895;28;20608;-49
2023/03/17 01:19:29;;;;;;;5.57;4.88;;;;;;;4.71;100.00;98121.94;4117789;28;20218;-49
2023/03/17 01:21:31;;;;;;;6.70;6.10;;;;;;;4.74;100.00;98113.38;4119252;28;20198;-49
2023/03/17 01:23:33;;;;;;;5.38;4.93;;;;;;;4.72;100.00;98129.00;4119353;28;20349;-49
2023/03/17 01:25:37;;;;;;;5.32;4.82;;;;;;;4.73;100.00;98125.28;4120555;28;20214;-50
2023/03/17 01:27:40;;;;;;;5.25;4.75;;;;;;;4.75;100.00;98124.00;4125000;28;20370;-50
2023/03/17 01:29:42;;;;;;;6.45;5.85;;;;;;;4.71;100.00;98111.09;4121488;28;20269;-49
2023/03/17 01:31:45;;;;;;;5.18;4.72;;;;;;;4.68;100.00;98114.28;4104091;28;20254;-49
2023/03/17 01:33:46;;;;;;;6.53;5.95;;;;;;;4.69;100.00;98124.91;4118926;28;20231;-51
2023/03/17 01:35:49;;;;;;;5.72;4.40;;;;;;;4.62;100.00;98118.72;4136274;28;20241;-49
2023/03/17 01:37:52;;;;;;;4.65;4.25;;;;;;;4.60;100.00;98120.78;4123393;28;20689;-49
2023/03/17 01:39:53;;;;;;;4.90;4.40;;;;;;;4.60;100.00;98115.38;4125812;28;20549;-49
2023/03/17 01:42:00;;;;;;;5.50;4.57;;;;;;;4.58;100.00;98113.94;4124943;28;20211;-50
2023/03/17 01:44:02;;;;;;;4.45;4.05;;;;;;;4.53;100.00;98114.59;4118130;28;20234;-49
2023/03/17 01:46:30;;;;;;;12.68;4.63;;;;;;;4.52;100.00;98115.66;4125132;28;20249;-49
2023/03/17 01:48:57;;;;;;;4.45;4.05;;;;;;;4.52;100.00;98107.53;4121716;28;20241;-49
2023/03/17 01:51:03;;;;;;;5.88;4.90;;;;;;;4.70;100.00;98115.72;4112425;28;20236;-48
2023/03/17 01:53:04;;;;;;;4.22;3.92;;;;;;;4.55;100.00;98106.25;4125787;28;20265;-49
2023/03/17 01:55:10;;;;;;;4.65;4.25;;;;;;;4.44;100.00;98096.97;4112617;28;20207;-49
2023/03/17 01:57:32;;;;;;;4.05;3.75;;;;;;;4.45;100.00;98095.94;4113244;28;20289;-48
2023/03/17 01:59:38;;;;;;;4.78;4.38;;;;;;;4.45;100.00;98100.50;4136629;28;20759;-49
2023/03/17 02:01:43;;;;;;;4.68;4.15;;;;;;;4.37;100.00;98093.50;4120485;28;20718;-49
2023/03/17 02:03:44;;;;;;;5.50;4.03;;;;;;;4.35;100.00;98094.78;4121805;28;20264;-49
2023/03/17 02:05:47;;;;;;;5.30;4.45;;;;;;;4.30;100.00;98100.00;4109676;28;20211;-49
2023/03/17 02:07:51;;;;;;;5.75;5.05;;;;;;;4.31;100.00;98097.09;4128106;28;20675;-48
2023/03/17 02:09:53;;;;;;;9.27;6.90;;;;;;;4.35;100.00;98095.59;4128659;28;20739;-50
2023/03/17 02:11:56;;;;;;;8.88;7.35;;;;;;;4.35;100.00;98095.59;4135860;28;20344;-50
2023/03/17 02:14:00;;;;;;;10.63;7.63;;;;;;;4.21;100.00;98087.81;4113205;28;20261;-50
2023/03/17 02:16:03;;;;;;;12.25;10.10;;;;;;;4.29;100.00;98085.66;4121210;28;20386;-50
2023/03/17 02:18:05;;;;;;;13.00;10.07;;;;;;;4.15;100.00;98078.66;4128356;28;20212;-49
2023/03/17 02:20:30;;;;;;;14.52;9.93;;;;;;;4.11;100.00;98079.34;4138888;28;20750;-50
2023/03/17 02:22:32;;;;;;;14.13;10.40;;;;;;;4.04;100.00;98079.41;4098896;28;20658;-49
2023/03/17 02:24:36;;;;;;;13.82;10.65;;;;;;;4.00;100.00;98078.16;4128748;28;20357;-49
2023/03/17 02:26:38;;;;;;;13.60;11.63;;;;;;;3.97;100.00;98086.75;4120973;28;20293;-49
2023/03/17 02:28:40;;;;;;;13.55;10.57;;;;;;;3.99;100.00;98084.63;4122179;28;20306;-50
2023/03/17 02:30:43;;;;;;;15.02;10.07;;;;;;;4.02;100.00;98083.38;4121658;28;20599;-50
2023/03/17 02:32:49;;;;;;;15.05;11.77;;;;;;;4.04;100.00;98082.09;4127112;28;20645;-49
2023/03/17 02:34:51;;;;;;;13.63;10.70;;;;;;;3.98;100.00;98077.56;4121426;28;20207;-49
2023/03/17 02:36:52;;;;;;;17.33;9.25;;;;;;;3.90;100.00;98088.66;4124895;28;20202;-49
2023/03/17 02:38:55;;;;;;;9.88;8.57;;;;;;;3.90;100.00;98085.13;4112986;28;20301;-51
2023/03/17 02:40:57;;;;;;;11.75;8.35;;;;;;;3.83;100.00;98084.34;4125896;28;20249;-50
2023/03/17 02:42:59;;;;;;;10.20;8.65;;;;;;;3.79;100.00;98094.75;4136719;28;20260;-49
2023/03/17 02:45:01;;;;;;;10.70;8.75;;;;;;;3.85;100.00;98095.75;4120894;28;20618;-49
2023/03/17 02:47:02;;;;;;;9.52;8.55;;;;;;;3.75;100.00;98088.13;4121480;28;20216;-50
2023/03/17 02:49:05;;;;;;;9.02;7.45;;;;;;;3.76;100.00;98095.22;4119649;28;20213;-51
2023/03/17 02:51:06;;;;;;;13.00;8.43;;;;;;;3.80;100.00;98085.59;4123154;28;20241;-50
2023/03/17 02:53:08;;;;;;;7.97;7.18;;;;;;;3.79;100.00;98100.19;4125487;28;20313;-50
2023/03/17 02:55:10;;;;;;;9.02;8.13;;;;;;;3.82;100.00;98093.50;4120426;28;20207;-50
2023/03/17 02:57:11;;;;;;;6.85;6.13;;;;;;;3.74;100.00;98091.06;4121759;28;20322;-49
2023/03/17 02:59:13;;;;;;;8.90;5.45;;;;;;;3.69;100.00;98089.00;4118924;28;20273;-50
2023/03/17 03:01:15;;;;;;;12.00;5.10;;;;;;;3.77;100.00;98075.22;4127348;28;20301;-50
2023/03/17 03:03:17;;;;;;;7.07;6.30;;;;;;;3.67;100.00;98080.25;4136829;28;20589;-50
2023/03/17 03:05:19;;;;;;;8.77;5.53;;;;;;;3.60;100.00;98087.59;4121845;28;20256;-49
2023/03/17 03:07:21;;;;;;;7.18;6.28;;;;;;;3.66;100.00;98092.13;4137380;28;20241;-50
2023/03/17 03:09:24;;;;;;;5.85;5.13;;;;;;;3.64;100.00;98091.53;4120732;28;20282;-49
2023/03/17 03:11:28;;;;;;;7.05;6.32;;;;;;;3.56;100.00;98090.94;4121560;28;20288;-49
2023/03/17 03:13:30;;;;;;;6.18;5.57;;;;;;;3.66;100.00;98094.03;4124239;28;20328;-50
2023/03/17 03:15:32;;;;;;;10.98;6.07;;;;;;;3.53;100.00;98088.69;4109478;28;20253;-50
2023/03/17 03:17:34;;;;;;;6.00;5.38;;;;;;;3.48;100.00;98086.59;4126658;28;20216;-48
2023/03/17 03:19:35;;;;;;;4.88;4.32;;;;;;;3.45;100.00;98086.22;4117333;28;20618;-49
2023/03/17 03:21:37;;;;;;;8.10;5.00;;;;;;;3.38;100.00;98091.66;4116853;28;20672;-50
2023/03/17 03:23:39;;;;;;;6.43;4.78;;;;;;;3.39;100.00;98087.91;4126399;28;20262;-49
2023/03/17 03:25:41;;;;;;;5.38;4.47;;;;;;;3.38;100.00;98091.66;4133807;28;20275;-49
2023/03/17 03:27:43;;;;;;;5.43;4.85;;;;;;;3.41;100.00;98082.31;4118485;28;20245;-50
2023/03/17 03:29:45;;;;;;;5.13;4.72;;;;;;;3.41;100.00;98085.81;4117566;28;20294;-49
2023/03/17 03:31:47;;;;;;;5.57;5.07;;;;;;;3.41;100.00;98090.41;4125729;28;20271;-50
2023/03/17 03:33:49;;;;;;;5.95;5.13;;;;;;;3.32;100.00;98086.28;4124914;28;20281;-50
2023/03/17 03:35:51;;;;;;;5.07;4.38;;;;;;;3.25;100.00;98085.47;4129409;28;20739;-50
2023/03/17 03:37:53;;;;;;;4.85;4.45;;;;;;;3.26;100.00;98087.97;4118995;28;20248;-49
2023/03/17 03:39:55;;;;;;;4.20;3.90;;;;;;;3.36;100.00;98077.53;4120993;28;20227;-51
2023/03/17 03:41:57;;;;;;;4.60;3.38;;;;;;;3.25;100.00;98080.06;4125900;28;20268;-50
2023/03/17 03:43:59;;;;;;;4.40;3.97;;;;;;;3.07;100.00;98072.66;4127888;28;20230;-49
2023/03/17 03:46:02;;;;;;;3.60;3.30;;;;;;;3.24;100.00;98079.25;4109855;28;20293;-49
2023/03/17 03:48:04;;;;;;;4.70;4.03;;;;;;;3.07;100.00;98078.06;4134732;28;20206;-48
2023/03/17 03:50:06;;;;;;;3.60;3.30;;;;;;;3.02;100.00;98077.88;4107344;28;20203;-49
2023/03/17 03:52:08;;;;;;;4.53;3.63;;;;;;;2.98;100.00;98079.34;4136810;28;20711;-50
2023/03/17 03:54:10;;;;;;;3.28;2.97;;;;;;;2.99;100.00;98090.97;4119567;28;20206;-49
2023/03/17 03:56:11;;;;;;;5.15;3.03;;;;;;;3.05;100.00;98095.53;4119008;28;20782;-49
2023/03/17 03:58:13;;;;;;;4.00;3.60;;;;;;;3.05;100.00;98104.47;4120588;28;20210;-50
2023/03/17 04:00:16;;;;;;;4.93;4.53;;;;;;;3.07;100.00;98102.38;4109139;28;20211;-49
2023/03/17 04:02:18;;;;;;;5.18;4.68;;;;;;;3.02;100.00;98099.47;4125127;28;20293;-50
2023/03/17 04:04:20;;;;;;;4.38;3.97;;;;;;;3.01;100.00;98105.94;4134034;28;20210;-50
2023/03/17 04:06:22;;;;;;;3.63;3.05;;;;;;;3.02;100.00;98110.28;4116780;28;20211;-50
2023/03/17 04:08:24;;;;;;;4.10;3.70;;;;;;;3.01;100.00;98105.94;4118527;28;20604;-49
2023/03/17 04:10:26;;;;;;;3.00;2.80;;;;;;;2.99;100.00;98105.31;4125606;28;20210;-49
2023/03/17 04:12:28;;;;;;;4.70;3.10;;;;;;;2.45;100.00;98088.63;4124953;28;20324;-49
2023/03/17 04:14:29;;;;;;;3.60;3.30;;;;;;;2.56;100.00;98096.09;4126650;28;20317;-49
2023/03/17 04:16:31;;;;;;;4.60;3.38;;;;;;;2.58;100.00;98088.59;4125990;28;20711;-49
2023/03/17 04:18:34;;;;;;;3.10;2.60;;;;;;;2.50;100.00;98096.94;4137201;28;20239;-49
2023/03/17 04:20:37;;;;;;;4.07;3.78;;;;;;;2.72;100.00;98090.22;4126330;28;20811;-50
2023/03/17 04:22:41;;;;;;;4.22;3.92;;;;;;;2.69;100.00;98074.47;4120409;28;20664;-50
2023/03/17 04:24:42;;;;;;;4.45;3.95;;;;;;;2.67;100.00;98081.94;4135656;28;20768;-50
2023/03/17 04:26:44;;;;;;;4.65;4.10;;;;;;;2.67;100.00;98092.72;4119113;28;20210;-50
2023/03/17 04:28:46;;;;;;;7.05;4.78;;;;;;;2.68;100.00;98099.78;4118491;28;20238;-51
2023/03/17 04:30:48;;;;;;;4.47;3.38;;;;;;;2.71;100.00;98099.38;4127218;28;20205;-49
2023/03/17 04:32:50;;;;;;;4.28;3.58;;;;;;;2.68;100.00;98094.38;4128975;28;20329;-49
2023/03/17 04:34:51;;;;;;;4.30;3.90;;;;;;;2.75;100.00;98088.97;4124603;28;20220;-49
2023/03/17 04:36:53;;;;;;;5.40;4.57;;;;;;;2.68;100.00;98094.38;4124700;28;20305;-49
2023/03/17 04:38:55;;;;;;;5.18;4.28;;;;;;;2.65;100.00;98107.47;4126354;28;20289;-49
2023/03/17 04:40:56;;;;;;;4.45;4.03;;;;;;;2.62;100.00;98097.91;4114903;28;20299;-50
2023/03/17 04:42:58;;;;;;;4.15;3.85;;;;;;;2.65;100.00;98097.53;4121242;28;20225;-49
2023/03/17 04:45:05;;;;;;;6.60;4.50;;;;;;;2.60;100.00;98100.00;4117963;28;20210;-49
2023/03/17 04:47:06;;;;;;;4.75;4.25;;;;;;;2.65;100.00;98108.31;4123015;28;20287;-49
2023/03/17 04:49:08;;;;;;;4.47;4.07;;;;;;;2.72;100.00;98109.13;4119359;28;20233;-48
2023/03/17 04:51:10;;;;;;;5.82;3.20;;;;;;;2.67;100.00;98108.94;4120144;28;20214;-49
2023/03/17 04:53:12;;;;;;;4.80;4.32;;;;;;;2.63;100.00;98113.13;4117829;28;20780;-51
2023/03/17 04:55:15;;;;;;;4.60;3.90;;;;;;;2.63;100.00;98107.72;4122484;28;20237;-50
2023/03/17 04:57:17;;;;;;;5.00;4.25;;;;;;;2.57;100.00;98116.66;4123994;28;20253;-50
2023/03/17 04:59:19;;;;;;;3.92;3.53;;;;;;;2.54;100.00;98114.34;4123277;28;20249;-50
2023/03/17 05:01:20;;;;;;;3.95;3.55;;;;;;;2.69;100.00;98120.38;4132272;28;20209;-49
2023/03/17 05:03:24;;;;;;;4.32;3.97;;;;;;;2.55;100.00;98121.41;4134066;28;20943;-50
2023/03/17 05:05:28;;;;;;;3.05;2.60;;;;;;;2.66;100.00;98128.06;4123149;28;20677;-50
2023/03/17 05:07:30;;;;;;;6.47;3.40;;;;;;;2.51;100.00;98116.63;4113649;28;20218;-51
2023/03/17 05:09:34;;;;;;;3.97;3.63;;;;;;;2.50;100.00;98113.13;4119559;28;20272;-50
2023/03/17 05:11:36;;;;;;;5.00;4.60;;;;;;;2.48;100.00;98109.78;4123913;28;20306;-52
2023/03/17 05:13:39;;;;;;;4.93;3.33;;;;;;;2.41;100.00;98114.34;4136296;28;20308;-50
2023/03/17 05:15:48;;;;;;;4.00;3.70;;;;;;;2.62;100.00;98111.41;4107626;28;20309;-50
2023/03/17 05:17:50;;;;;;;4.25;3.85;;;;;;;2.62;100.00;98116.00;4136082;28;20630;-51
2023/03/17 05:19:51;;;;;;;4.00;3.70;;;;;;;2.49;100.00;98116.88;4118105;28;20234;-50
2023/03/17 05:21:53;;;;;;;6.30;3.55;;;;;;;2.54;100.00;98125.16;4120232;28;20207;-51
2023/03/17 05:23:54;;;;;;;5.50;4.90;;;;;;;2.50;100.00;98123.94;4117472;28;20835;-52
2023/03/17 05:25:56;;;;;;;11.90;4.82;;;;;;;2.39;100.00;98124.53;4118962;28;20290;-52
2023/03/17 05:27:58;;;;;;;7.43;6.22;;;;;;;2.43;100.00;98117.69;4122160;28;20297;-52
2023/03/17 05:30:01;;;;;;;5.30;4.90;;;;;;;2.41;100.00;98121.66;4122077;28;20253;-51
2023/03/17 05:32:03;;;;;;;5.47;4.97;;;;;;;2.34;100.00;98118.94;4122759;28;20655;-49
2023/03/17 05:34:05;;;;;;;4.00;3.70;;;;;;;2.42;100.00;98126.00;4123478;28;20226;-50
2023/03/17 05:36:09;;;;;;;5.07;4.22;;;;;;;2.31;100.00;98113.97;4136861;28;20296;-50
2023/03/17 05:38:12;;;;;;;4.97;4.47;;;;;;;2.26;100.00;98121.84;4123163;28;20208;-49
2023/03/17 05:40:14;;;;;;;4.53;4.13;;;;;;;2.30;100.00;98112.31;4119171;28;20297;-49
2023/03/17 05:42:15;;;;;;;4.95;4.45;;;;;;;2.29;100.00;98116.03;4128214;28;20206;-50
2023/03/17 05:44:17;;;;;;;3.53;3.22;;;;;;;2.34;100.00;98118.94;4111400;28;20206;-50
2023/03/17 05:46:19;;;;;;;3.63;3.42;;;;;;;2.19;100.00;98123.72;4128867;28;20297;-49
2023/03/17 05:48:21;;;;;;;3.40;3.03;;;;;;;2.22;100.00;98109.78;4122398;28;20348;-49
2023/03/17 05:50:23;;;;;;;3.03;2.78;;;;;;;2.17;100.00;98117.69;4122510;28;20293;-51
2023/03/17 05:52:25;;;;;;;4.13;3.83;;;;;;;2.27;100.00;98112.72;4122716;28;20309;-49
2023/03/17 05:54:27;;;;;;;3.30;2.97;;;;;;;2.23;100.00;98103.38;4120207;28;20215;-49
2023/03/17 05:56:32;;;;;;;3.88;3.20;;;;;;;2.17;100.00;98101.50;4122349;28;20728;-50
2023/03/17 05:58:34;;;;;;;3.28;3.08;;;;;;;2.16;100.00;98102.56;4137211;28;20209;-50
2023/03/17 06:00:36;;;;;;;3.50;2.95;;;;;;;2.17;100.00;98116.84;4118780;28;20614;-50
2023/03/17 06:02:39;;;;;;;4.65;3.40;;;;;;;2.23;100.00;98106.09;4127848;28;20719;-50
2023/03/17 06:04:40;;;;;;;5.60;3.50;;;;;;;2.19;100.00;98103.97;4127551;28;20213;-49
2023/03/17 06:06:42;;;;;;;5.28;3.45;;;;;;;2.18;100.00;98122.06;4135554;28;20251;-50
2023/03/17 06:08:44;;;;;;;4.18;2.83;;;;;;;2.22;100.00;98120.59;4126507;28;20973;-50
2023/03/17 06:10:46;;;;;;;3.08;2.78;;;;;;;2.29;100.00;98121.44;4105180;28;20253;-49
2023/03/17 06:12:48;;;;;;;4.97;4.47;;;;;;;2.30;100.00;98117.69;4136454;28;20222;-49
2023/03/17 06:14:50;;;;;;;6.43;5.88;;;;;;;2.39;100.00;98129.94;4123858;28;20469;-49
2023/03/17 06:16:53;;;;;;;7.03;4.68;;;;;;;2.41;100.00;98125.16;4120722;28;20261;-47
2023/03/17 06:18:55;;;;;;;4.93;4.03;;;;;;;2.41;100.00;98125.16;4112208;28;20610;-49
2023/03/17 06:20:57;;;;;;;4.65;4.35;;;;;;;2.51;100.00;98117.47;4132872;28;20237;-50
2023/03/17 06:22:59;;;;;;;4.90;4.40;;;;;;;2.48;100.00;98111.66;4120612;28;20249;-48
2023/03/17 06:25:06;;;;;;;5.05;4.43;;;;;;;2.61;100.00;98120.56;4123021;28;20276;-48
2023/03/17 06:27:09;;;;;;;4.85;4.45;;;;;;;2.56;100.00;98115.00;4112060;28;20298;-48
2023/03/17 06:29:11;;;;;;;6.57;5.97;;;;;;;2.65;100.00;98116.41;4137228;28;20236;-48
2023/03/17 06:31:13;;;;;;;5.28;4.88;;;;;;;2.70;100.00;98123.88;4109241;28;20243;-47
2023/03/17 06:33:16;;;;;;;6.65;6.03;;;;;;;2.63;100.00;98118.50;4120345;28;20229;-47
2023/03/17 06:35:18;;;;;;;7.30;6.55;;;;;;;2.77;100.00;98117.44;4119496;28;20217;-48
2023/03/17 06:37:20;;;;;;;6.57;5.97;;;;;;;2.84;100.00;98123.66;4118601;28;20210;-48
2023/03/17 06:39:22;;;;;;;7.00;6.35;;;;;;;3.00;100.00;98117.78;4111651;28;20887;-49
2023/03/17 06:41:24;;;;;;;12.05;10.35;;;;;;;3.19;100.00;98108.78;4118926;28;20775;-49
2023/03/17 06:43:26;;;;;;;11.63;10.63;;;;;;;3.33;100.00;98115.81;4120855;28;20226;-47
2023/03/17 06:45:28;;;;;;;10.73;9.68;;;;;;;3.67;100.00;98115.44;4133929;28;20252;-48
2023/03/17 06:47:31;;;;;;;11.40;8.52;;;;;;;3.77;100.00;98118.50;4117701;28;20217;-49
2023/03/17 06:49:32;;;;;;;7.38;6.75;;;;;;;3.80;100.00;98112.66;4120227;28;20249;-48
2023/03/17 06:51:36;;;;;;;8.20;6.63;;;;;;;3.96;100.00;98116.72;4138226;28;20276;-48
2023/03/17 06:53:37;;;;;;;6.03;5.20;;;;;;;4.05;100.00;98116.25;4123455;28;20244;-50
2023/03/17 06:55:40;;;;;;;4.53;4.13;;;;;;;4.22;100.00;98114.66;4136969;28;20687;-49
2023/03/17 06:57:42;;;;;;;5.43;4.53;;;;;;;4.17;100.00;98114.50;4120902;28;20224;-48
2023/03/17 06:59:45;;;;;;;5.10;3.95;;;;;;;4.18;100.00;98105.31;4121599;28;20257;-49
2023/03/17 07:01:57;;;;;;;3.97;3.60;;;;;;;4.15;100.00;98116.56;4136161;28;20243;-48
2023/03/17 07:04:01;;;;;;;4.00;3.70;;;;;;;4.21;100.00;98110.28;4128828;28;20230;-47
2023/03/17 07:06:03;;;;;;;4.07;3.67;;;;;;;4.23;100.00;98112.78;4137591;28;20217;-48
2023/03/17 07:08:05;;;;;;;4.35;3.95;;;;;;;4.23;100.00;98118.19;4121464;28;20667;-48
2023/03/17 07:10:09;;;;;;;5.10;3.70;;;;;;;4.19;100.00;98115.09;4114531;28;20209;-48
2023/03/17 07:12:11;;;;;;;15.57;4.78;;;;;;;4.11;100.00;98115.38;4117214;28;20249;-48
2023/03/17 07:14:12;;;;;;;4.55;4.20;;;;;;;4.16;100.00;98118.25;4121332;28;20234;-48
2023/03/17 07:16:15;;;;;;;6.50;4.55;;;;;;;4.23;100.00;98119.03;4132809;28;20225;-49
2023/03/17 07:18:18;;;;;;;4.50;4.03;;;;;;;4.23;100.00;98118.19;4124492;28;20211;-48
2023/03/17 07:20:20;;;;;;;4.38;3.95;;;;;;;4.32;100.00;98125.81;4123989;28;20210;-48
2023/03/17 07:22:22;;;;;;;5.88;4.68;;;;;;;4.34;100.00;98129.13;4135374;28;20297;-47
2023/03/17 07:24:24;;;;;;;7.15;3.97;;;;;;;4.50;100.00;98131.31;4123919;28;20206;-48
2023/03/17 07:26:26;;;;;;;4.43;4.05;;;;;;;4.55;100.00;98127.94;4118274;28;20244;-48
2023/03/17 07:28:28;;;;;;;5.95;4.22;;;;;;;4.70;100.00;98131.97;4126396;28;20749;-48
2023/03/17 07:30:30;;;;;;;8.32;5.32;;;;;;;4.91;100.00;98134.25;4136459;28;20257;-48
2023/03/17 07:32:32;;;;;;;5.18;4.78;;;;;;;4.78;100.00;98123.56;4117293;28;20707;-48
2023/03/17 07:34:34;;;;;;;3.67;3.35;;;;;;;5.11;100.00;98124.03;4122127;28;20718;-48
2023/03/17 07:36:36;;;;;;;4.80;4.38;;;;;;;5.38;100.00;98126.25;4135406;28;20304;-49
2023/03/17 07:38:38;;;;;;;5.95;3.95;;;;;;;5.29;100.00;98126.75;4136536;28;20300;-48
2023/03/17 07:40:41;;;;;;;4.03;3.58;;;;;;;5.50;100.00;98129.00;4134398;28;20694;-48
2023/03/17 07:42:44;;;;;;;5.10;3.97;;;;;;;5.99;100.00;98126.06;4106386;28;20233;-48
2023/03/17 07:44:45;;;;;;;5.55;5.05;;;;;;;6.21;100.00;98122.63;4117393;28;20264;-49
2023/03/17 07:46:48;;;;;;;6.55;4.63;;;;;;;6.79;100.00;98118.09;4124847;28;20262;-48
2023/03/17 07:48:50;;;;;;;5.05;4.65;;;;;;;7.22;100.00;98118.53;4136115;28;20289;-48
2023/03/17 07:50:52;;;;;;;3.70;3.40;;;;;;;7.70;99.01;98110.06;4125401;28;20213;-48
2023/03/17 07:52:55;;;;;;;9.20;5.45;;;;;;;8.16;98.67;98109.88;4126801;28;20221;-48
2023/03/17 07:54:57;;;;;;;4.97;4.57;;;;;;;8.42;95.05;98112.00;4119930;28;20660;-49
2023/03/17 07:57:04;;;;;;;6.13;4.70;;;;;;;9.52;91.12;98108.22;4108222;28;20283;-49
2023/03/17 07:59:07;;;;;;;4.35;3.95;;;;;;;9.86;89.89;98109.75;4120170;28;20206;-49
2023/03/17 08:01:09;;;;;;;5.13;4.63;;;;;;;10.14;84.37;98115.84;4120326;28;20201;-49
2023/03/17 08:03:11;;;;;;;4.15;3.45;;;;;;;10.67;84.09;98112.28;4118049;28;20229;-49
2023/03/17 08:05:13;;;;;;;5.05;4.57;;;;;;;10.98;82.58;98104.88;4118048;28;20249;-49
2023/03/17 08:07:14;;;;;;;4.28;3.88;;;;;;;11.03;80.79;98110.38;4118882;28;20215;-50
2023/03/17 08:09:16;;;;;;;5.05;4.65;;;;;;;11.51;79.79;98121.09;4118330;28;20210;-50
2023/03/17 08:11:19;;;;;;;7.65;3.58;;;;;;;11.13;79.71;98117.84;4119348;28;20275;-48
2023/03/17 08:13:20;;;;;;;4.47;3.30;;;;;;;11.11;78.54;98109.88;4116757;28;20273;-47
2023/03/17 08:15:22;;;;;;;4.75;3.00;;;;;;;10.89;80.76;98114.66;4120106;28;20213;-49
2023/03/17 08:17:27;;;;;;;4.50;3.58;;;;;;;10.84;80.08;98109.13;4117464;28;20264;-47
2023/03/17 08:19:29;;;;;;;7.20;3.05;;;;;;;11.12;81.97;98116.22;4117954;28;20615;-49
2023/03/17 08:21:31;;;;;;;7.45;3.25;;;;;;;11.55;78.97;98110.44;4119224;28;20218;-47
2023/03/17 08:23:32;;;;;;;3.47;3.17;;;;;;;11.52;79.50;98106.31;4117342;28;20258;-49
2023/03/17 08:25:34;;;;;;;3.47;3.03;;;;;;;11.63;79.15;98093.53;4122023;28;20670;-48
2023/03/17 08:27:36;;;;;;;3.75;3.45;;;;;;;12.21;77.71;98102.25;4114338;28;20913;-50
2023/03/17 08:29:38;;;;;;;4.25;3.15;;;;;;;12.67;75.90;98098.47;4119798;28;20241;-49
2023/03/17 08:31:40;;;;;;;3.17;2.88;;;;;;;13.13;73.32;98107.56;4132644;28;20213;-49
2023/03/17 08:33:47;;;;;;;3.38;3.05;;;;;;;12.53;75.12;98100.13;4130191;28;20229;-48
2023/03/17 08:35:49;;;;;;;2.88;2.42;;;;;;;13.48;70.44;98099.25;4112179;28;20684;-49
2023/03/17 08:37:51;;;;;;;4.00;3.00;;;;;;;13.56;69.97;98094.00;4120036;28;20778;-48
2023/03/17 08:39:56;;;;;;;4.85;2.25;;;;;;;13.93;69.21;98093.59;4118880;28;20288;-47
2023/03/17 08:41:58;;;;;;;3.60;3.30;;;;;;;14.04;67.47;98087.75;4117428;28;20240;-48
2023/03/17 08:44:02;;;;;;;2.47;2.08;;;;;;;14.17;67.41;98086.34;4117574;28;20230;-49
2023/03/17 08:46:13;;;;;;;2.25;2.05;;;;;;;13.60;67.12;98092.34;4116672;28;20732;-48
2023/03/17 08:48:15;;;;;;;2.88;1.63;;;;;;;13.55;68.53;98084.13;4131033;28;20303;-48
2023/03/17 08:50:22;;;;;;;2.13;1.92;;;;;;;13.74;67.38;98082.41;4131124;28;20209;-48
2023/03/17 08:52:23;;;;;;;2.45;2.25;;;;;;;13.73;67.30;98075.28;4116882;28;20202;-48
2023/03/17 08:54:25;;;;;;;2.30;1.83;;;;;;;13.58;68.15;98069.78;4118380;28;20226;-48
2023/03/17 08:56:27;;;;;;;3.63;1.70;;;;;;;13.80;67.68;98059.28;4118387;28;20241;-48
2023/03/17 08:58:29;;;;;;;2.20;1.70;;;;;;;13.95;66.51;98050.94;4135938;28;20220;-48
2023/03/17 09:00:31;;;;;;;3.65;1.88;;;;;;;14.34;64.59;98046.34;4117384;28;20657;-48
2023/03/17 09:02:33;;;;;;;1.60;1.50;;;;;;;14.45;64.86;98050.69;4118511;28;20235;-48
2023/03/17 09:04:36;;;;;;;5.95;1.70;;;;;;;14.09;62.08;98057.47;4122781;28;20206;-47
2023/03/17 09:06:40;;;;;;;4.82;1.67;;;;;;;14.18;61.76;98053.03;4120279;28;20298;-48
2023/03/17 09:09:02;;;;;;;2.03;1.25;;;;;;;13.79;57.89;98051.31;4123078;28;20220;-47
2023/03/17 09:11:05;;;;;;;2.35;2.15;;;;;;;13.96;59.29;98047.09;4132912;28;20242;-48
2023/03/17 09:13:08;;;;;;;2.65;1.55;;;;;;;13.82;53.79;98054.31;4118714;28;20229;-48
2023/03/17 09:15:10;;;;;;;3.13;1.45;;;;;;;13.93;56.44;98047.66;4118230;28;20738;-49
2023/03/17 09:17:13;;;;;;;3.55;1.30;;;;;;;13.83;56.42;98052.41;4114630;28;20859;-48
2023/03/17 09:19:15;;;;;;;2.13;1.20;;;;;;;13.85;55.35;98050.19;4118137;28;20218;-49
2023/03/17 09:21:17;;;;;;;2.17;1.17;;;;;;;13.98;55.01;98044.88;4103958;28;20294;-48
2023/03/17 09:23:19;;;;;;;4.13;1.33;;;;;;;14.15;53.92;98050.84;4114564;28;20628;-49
2023/03/17 09:25:21;;;;;;;3.40;1.42;;;;;;;14.05;54.76;98056.41;4115774;28;20211;-48
2023/03/17 09:27:23;;;;;;;3.13;0.80;;;;;;;14.08;53.33;98055.00;4133794;28;20290;-47
2023/03/17 09:29:25;;;;;;;1.55;1.27;;;;;;;13.92;53.36;98050.69;4114013;28;20206;-48
2023/03/17 09:31:27;;;;;;;2.85;1.15;;;;;;;14.19;54.30;98051.97;4117060;28;20231;-48
2023/03/17 09:33:28;;;;;;;1.10;0.80;;;;;;;14.23;54.79;98053.03;4132077;28;20284;-48
2023/03/17 09:35:31;;;;;;;6.88;1.20;;;;;;;14.23;54.16;98064.03;4116868;28;20222;-47
2023/03/17 09:37:35;;;;;;;1.15;0.90;;;;;;;13.75;52.42;98050.22;4118686;28;20898;-47